McCrea, Pennsylvania
Current Conditions -  °F | °C
As of 10:56 AM on Friday 21 Nov 2014 (Local Time) from KCXY Reporting Station
Scattered Clouds Scattered Clouds  
Wind Chill: 22°   Ceiling: Unl
Heat Index: 32°   Visibility: 10mi
Dew Point:   Wind: 15mph
Humidity: 35%   Direction: 310°NW
Pressure: 30.41"   Gusts: 21mph
Location:  40.183°N, 77.4166°W
Report Text: KCXY 211556Z 31013G18KT 10SM SCT050 00/M14 A3041 RMK AO2 SLP302 T00001139
Loading
Personal Weather Stations






























Interactive Weather Map New forecast layout! Learn more

10-Day Weather Forecast

Advertisements
Track Severe Weather on mobile